Time;durP1;ratioP1;P1;durP2;ratioP2;P2;SDS_P1;SDS_P2;PMS_P1;PMS_P2;Temp;Humidity;BMP_temperature;BMP_pressure;BME280_temperature;BME280_humidity;BME280_pressure;Samples;Min_cycle;Max_cycle;Signal;HPM_P1;HPM_P2
2023/12/25 00:00:05;;;;;;;4.72;2.50;;;10.80;99.90;;;;;;5072682;28;20154;-71
2023/12/25 00:02:32;;;;;;;2.42;2.05;;;10.80;99.90;;;;;;5073716;28;20074;-71
2023/12/25 00:04:58;;;;;;;2.35;2.00;;;10.70;99.90;;;;;;5072961;28;20499;-71
2023/12/25 00:07:24;;;;;;;3.97;2.00;;;10.70;99.90;;;;;;5073448;28;20024;-71
2023/12/25 00:09:49;;;;;;;2.78;1.90;;;10.60;99.90;;;;;;5073122;28;20075;-71
2023/12/25 00:12:15;;;;;;;2.15;1.60;;;10.60;99.90;;;;;;5072907;28;20032;-71
2023/12/25 00:14:41;;;;;;;4.22;1.80;;;10.60;99.90;;;;;;5071793;28;20033;-71
2023/12/25 00:17:07;;;;;;;2.45;1.70;;;10.50;99.90;;;;;;5073371;28;20028;-71
2023/12/25 00:19:32;;;;;;;3.28;1.48;;;10.40;99.90;;;;;;5072810;28;20037;-71
2023/12/25 00:21:58;;;;;;;3.83;2.30;;;10.40;99.90;;;;;;5072985;28;20027;-71
2023/12/25 00:24:24;;;;;;;3.33;1.92;;;10.40;99.90;;;;;;5072772;28;20111;-71
2023/12/25 00:26:50;;;;;;;4.45;1.60;;;10.40;99.90;;;;;;5072532;28;20042;-71
2023/12/25 00:29:15;;;;;;;3.38;1.50;;;10.40;99.90;;;;;;5072417;28;20031;-71
2023/12/25 00:31:41;;;;;;;3.50;1.75;;;10.30;99.90;;;;;;5072775;28;20364;-70
2023/12/25 00:34:07;;;;;;;4.30;1.83;;;10.20;99.90;;;;;;5072576;28;20106;-71
2023/12/25 00:36:33;;;;;;;4.70;1.77;;;10.20;99.90;;;;;;5072572;28;20146;-71
2023/12/25 00:38:59;;;;;;;2.95;1.98;;;10.20;99.90;;;;;;5072467;28;20550;-71
2023/12/25 00:41:30;;;;;;;2.42;2.10;;;10.10;99.90;;;;;;5087620;28;20110;-71
2023/12/25 00:43:57;;;;;;;4.70;2.90;;;10.10;99.90;;;;;;5092198;28;20023;-71
2023/12/25 00:46:22;;;;;;;4.18;2.40;;;10.10;99.90;;;;;;5092712;28;20446;-71
2023/12/25 00:48:48;;;;;;;3.72;2.60;;;9.90;99.90;;;;;;5091398;28;20048;-70
2023/12/25 00:51:14;;;;;;;4.15;2.55;;;9.90;99.90;;;;;;5092545;28;20028;-71
2023/12/25 00:53:41;;;;;;;6.95;3.70;;;9.90;99.90;;;;;;5091306;28;20057;-71
2023/12/25 00:56:08;;;;;;;6.25;4.25;;;9.90;99.90;;;;;;5092393;28;20051;-71
2023/12/25 00:58:34;;;;;;;5.90;5.30;;;9.90;99.90;;;;;;5092495;28;20111;-71
2023/12/25 01:01:00;;;;;;;8.20;4.78;;;9.80;99.90;;;;;;5092466;28;20028;-70
2023/12/25 01:03:25;;;;;;;4.60;3.47;;;9.70;99.90;;;;;;5092426;28;20031;-71
2023/12/25 01:05:51;;;;;;;3.30;3.00;;;10.00;99.90;;;;;;5092739;28;20028;-71
2023/12/25 01:08:16;;;;;;;4.90;2.92;;;10.10;99.90;;;;;;5092392;28;20046;-70
2023/12/25 01:10:42;;;;;;;4.88;2.83;;;10.20;99.90;;;;;;5092241;28;20071;-70
2023/12/25 01:13:08;;;;;;;3.25;2.78;;;10.30;99.90;;;;;;5091859;28;20440;-71
2023/12/25 01:15:33;;;;;;;4.45;3.13;;;10.30;99.90;;;;;;5092050;28;20118;-71
2023/12/25 01:17:59;;;;;;;4.55;3.60;;;10.30;99.90;;;;;;5092639;28;20026;-70
2023/12/25 01:20:25;;;;;;;4.07;3.22;;;10.30;99.90;;;;;;5092174;28;20028;-71
2023/12/25 01:22:51;;;;;;;6.00;3.60;;;10.30;99.90;;;;;;5092162;28;20016;-70
2023/12/25 01:25:16;;;;;;;3.83;3.42;;;10.30;99.90;;;;;;5092352;28;20074;-70
2023/12/25 01:27:42;;;;;;;4.45;3.40;;;10.20;99.90;;;;;;5091944;28;20081;-70
2023/12/25 01:30:10;;;;;;;3.95;3.30;;;10.20;99.90;;;;;;5092104;28;20024;-70
2023/12/25 01:32:36;;;;;;;4.43;3.33;;;10.20;99.90;;;;;;5092188;28;20035;-71
2023/12/25 01:35:02;;;;;;;3.90;3.28;;;10.00;99.90;;;;;;5092418;28;20390;-71
2023/12/25 01:37:28;;;;;;;6.25;3.75;;;9.80;99.90;;;;;;5091898;28;20023;-71
2023/12/25 01:39:53;;;;;;;3.97;3.67;;;9.60;99.90;;;;;;5091749;28;20081;-71
2023/12/25 01:42:19;;;;;;;5.13;3.78;;;9.50;99.90;;;;;;5091727;28;20069;-71
2023/12/25 01:44:46;;;;;;;4.32;3.63;;;9.40;99.90;;;;;;5092076;28;20173;-71
2023/12/25 01:47:13;;;;;;;4.20;3.58;;;9.30;99.90;;;;;;5092006;28;20526;-71
2023/12/25 01:49:39;;;;;;;6.13;4.05;;;9.30;99.90;;;;;;5091960;28;20153;-71
2023/12/25 01:52:05;;;;;;;4.30;3.90;;;9.20;99.90;;;;;;5091806;28;20037;-71
2023/12/25 01:54:32;;;;;;;5.22;3.88;;;9.20;99.90;;;;;;5092176;28;20039;-71
2023/12/25 01:56:59;;;;;;;5.03;4.50;;;9.10;99.90;;;;;;5091681;28;20052;-71
2023/12/25 01:59:29;;;;;;;5.15;4.40;;;9.00;99.90;;;;;;5090555;28;20064;-71
2023/12/25 02:01:59;;;;;;;4.88;4.47;;;9.00;99.90;;;;;;5091601;28;20024;-71
2023/12/25 02:04:26;;;;;;;5.47;4.68;;;8.90;99.90;;;;;;5091911;28;20474;-71
2023/12/25 02:06:53;;;;;;;5.30;4.80;;;8.90;99.90;;;;;;5091763;28;20028;-71
2023/12/25 02:09:18;;;;;;;5.60;5.10;;;8.90;99.90;;;;;;5092036;28;20052;-71
2023/12/25 02:11:44;;;;;;;5.50;4.80;;;8.80;99.90;;;;;;5091308;28;20055;-71
2023/12/25 02:14:11;;;;;;;5.00;4.60;;;8.80;99.90;;;;;;5091622;28;20016;-71
2023/12/25 02:16:39;;;;;;;5.68;5.15;;;8.80;99.90;;;;;;5091780;28;20437;-71
2023/12/25 02:19:15;;;;;;;8.27;5.35;;;8.80;99.90;;;;;;5091599;28;20028;-71
2023/12/25 02:21:42;;;;;;;6.18;5.43;;;8.70;99.90;;;;;;5092135;28;20064;-71
2023/12/25 02:24:12;;;;;;;6.65;5.18;;;8.70;99.90;;;;;;5091532;28;20130;-71
2023/12/25 02:26:37;;;;;;;6.03;5.40;;;8.70;99.90;;;;;;5091038;28;20082;-71
2023/12/25 02:29:03;;;;;;;7.03;5.20;;;8.60;99.90;;;;;;5091664;28;20020;-71
2023/12/25 02:31:29;;;;;;;6.43;5.30;;;8.60;99.90;;;;;;5091394;28;20024;-71
2023/12/25 02:33:55;;;;;;;5.90;5.30;;;8.50;99.90;;;;;;5091450;28;20024;-71
2023/12/25 02:36:20;;;;;;;6.00;5.45;;;8.50;99.90;;;;;;5092032;28;20060;-71
2023/12/25 02:38:46;;;;;;;6.18;5.57;;;8.50;99.90;;;;;;5095021;28;20036;-71
2023/12/25 02:41:11;;;;;;;6.07;5.32;;;8.50;99.90;;;;;;5094914;28;20027;-71
2023/12/25 02:43:37;;;;;;;6.68;5.53;;;8.40;99.90;;;;;;5094641;28;20024;-71
2023/12/25 02:46:03;;;;;;;6.25;5.25;;;8.30;99.90;;;;;;5094709;28;20096;-71
2023/12/25 02:48:30;;;;;;;5.95;5.45;;;8.30;99.90;;;;;;5095408;28;20077;-71
2023/12/25 02:50:55;;;;;;;5.93;5.40;;;8.40;99.90;;;;;;5094931;28;20197;-70
2023/12/25 02:53:21;;;;;;;5.53;5.03;;;8.40;99.90;;;;;;5093360;28;20550;-70
2023/12/25 02:55:47;;;;;;;5.47;4.97;;;8.20;99.90;;;;;;5094463;28;20483;-70
2023/12/25 02:58:12;;;;;;;5.47;5.05;;;8.30;99.90;;;;;;5094841;28;20035;-71
2023/12/25 03:00:38;;;;;;;6.10;5.50;;;8.40;99.90;;;;;;5094982;28;20073;-71
2023/12/25 03:03:04;;;;;;;5.47;4.97;;;8.50;99.90;;;;;;5094589;28;20385;-70
2023/12/25 03:05:29;;;;;;;7.53;5.32;;;8.70;99.90;;;;;;5094505;28;20027;-71
2023/12/25 03:07:55;;;;;;;5.30;4.90;;;8.60;99.90;;;;;;5095048;28;20436;-70
2023/12/25 03:10:20;;;;;;;6.13;5.03;;;8.60;99.90;;;;;;5094266;28;20451;-70
2023/12/25 03:12:46;;;;;;;5.65;5.10;;;8.60;99.90;;;;;;5094386;28;20020;-70
2023/12/25 03:15:12;;;;;;;6.55;5.93;;;8.60;99.90;;;;;;5094579;28;20085;-70
2023/12/25 03:17:37;;;;;;;6.60;6.00;;;8.70;99.90;;;;;;5094781;28;20122;-71
2023/12/25 03:20:05;;;;;;;7.78;6.95;;;8.60;99.90;;;;;;5094340;28;20047;-70
2023/12/25 03:22:31;;;;;;;11.07;7.90;;;8.70;99.90;;;;;;5094265;28;20082;-71
2023/12/25 03:24:59;;;;;;;9.98;8.48;;;8.70;99.90;;;;;;5093743;28;20031;-71
2023/12/25 03:27:24;;;;;;;11.38;8.85;;;8.50;99.90;;;;;;5094558;28;20077;-71
2023/12/25 03:29:50;;;;;;;11.00;9.07;;;8.30;99.90;;;;;;5093771;28;20028;-71
2023/12/25 03:32:19;;;;;;;9.15;7.97;;;8.20;99.90;;;;;;5094551;28;20085;-71
2023/12/25 03:34:48;;;;;;;9.23;7.85;;;8.10;99.90;;;;;;5094120;28;20032;-71
2023/12/25 03:37:15;;;;;;;7.97;7.18;;;8.00;99.90;;;;;;5093846;28;20478;-71
2023/12/25 03:39:41;;;;;;;7.57;6.85;;;7.90;99.90;;;;;;5093432;28;20115;-71
2023/12/25 03:42:07;;;;;;;7.22;6.63;;;7.80;99.90;;;;;;5094423;28;20516;-71
2023/12/25 03:44:32;;;;;;;8.68;6.93;;;7.80;99.90;;;;;;5093812;28;20418;-71
2023/12/25 03:46:58;;;;;;;6.45;5.85;;;7.70;99.90;;;;;;5094135;28;20049;-71
2023/12/25 03:49:24;;;;;;;9.13;6.05;;;7.70;99.90;;;;;;5092412;28;20035;-71
2023/12/25 03:51:49;;;;;;;6.75;5.60;;;7.60;99.90;;;;;;5093665;28;20024;-71
2023/12/25 03:54:15;;;;;;;6.82;5.68;;;7.60;99.90;;;;;;5093330;28;20033;-71
2023/12/25 03:56:41;;;;;;;9.38;5.43;;;7.60;99.90;;;;;;5093652;28;20113;-71
2023/12/25 03:59:08;;;;;;;6.25;5.38;;;7.50;99.90;;;;;;5093655;28;20098;-71
2023/12/25 04:01:40;;;;;;;10.77;5.65;;;7.50;99.90;;;;;;5093502;28;20040;-71
2023/12/25 04:04:06;;;;;;;5.78;5.00;;;7.50;99.90;;;;;;5093488;28;20401;-71
2023/12/25 04:06:31;;;;;;;7.25;5.57;;;7.50;99.90;;;;;;5093144;28;20111;-71
2023/12/25 04:08:57;;;;;;;5.72;5.20;;;7.40;99.90;;;;;;5093373;28;20046;-71
2023/12/25 04:11:24;;;;;;;5.40;4.90;;;7.40;99.90;;;;;;5093654;28;20036;-71
2023/12/25 04:13:53;;;;;;;7.07;5.88;;;7.30;99.90;;;;;;5093209;28;20100;-71
2023/12/25 04:16:23;;;;;;;6.50;5.50;;;7.30;99.90;;;;;;5093384;28;20059;-71
2023/12/25 04:18:49;;;;;;;6.30;5.53;;;7.30;99.90;;;;;;5093096;28;20040;-70
2023/12/25 04:21:31;;;;;;;6.00;5.40;;;7.30;99.90;;;;;;5093251;28;20020;-71
2023/12/25 04:23:57;;;;;;;6.10;5.50;;;7.30;99.90;;;;;;5093064;28;20020;-71
2023/12/25 04:26:24;;;;;;;7.20;5.00;;;7.30;99.90;;;;;;5093146;28;20022;-71
2023/12/25 04:28:50;;;;;;;8.43;5.28;;;7.30;99.90;;;;;;5092881;28;20691;-71
2023/12/25 04:31:17;;;;;;;5.38;4.88;;;7.20;99.90;;;;;;5093008;28;20024;-71
2023/12/25 04:33:43;;;;;;;6.90;4.45;;;7.20;99.90;;;;;;5093242;28;20545;-71
2023/12/25 04:36:09;;;;;;;5.35;4.50;;;7.20;99.90;;;;;;5092513;28;20119;-71
2023/12/25 04:38:36;;;;;;;5.22;4.40;;;7.20;99.90;;;;;;5092699;28;20035;-71
2023/12/25 04:41:02;;;;;;;5.43;4.47;;;7.20;99.90;;;;;;5092680;28;20034;-70
2023/12/25 04:43:27;;;;;;;4.78;4.28;;;7.10;99.90;;;;;;5092862;28;20112;-70
2023/12/25 04:45:53;;;;;;;4.63;4.22;;;7.10;99.90;;;;;;5092501;28;20134;-71
2023/12/25 04:48:19;;;;;;;6.75;4.40;;;7.10;99.90;;;;;;5092626;28;20032;-71
2023/12/25 04:50:45;;;;;;;5.32;4.35;;;7.10;99.90;;;;;;5092363;28;20059;-70
2023/12/25 04:53:10;;;;;;;4.93;4.43;;;7.10;99.90;;;;;;5092680;28;20024;-70
2023/12/25 04:55:37;;;;;;;4.85;4.45;;;7.20;99.90;;;;;;5092507;28;20085;-70
2023/12/25 04:58:03;;;;;;;6.47;4.95;;;7.30;99.90;;;;;;5092830;28;20103;-71
2023/12/25 05:00:31;;;;;;;5.05;4.55;;;7.50;99.90;;;;;;5092105;28;20040;-70
2023/12/25 05:02:56;;;;;;;4.90;4.40;;;7.60;99.90;;;;;;5092287;28;20027;-71
2023/12/25 05:05:22;;;;;;;8.60;4.50;;;7.60;99.90;;;;;;5092022;28;20111;-70
2023/12/25 05:07:48;;;;;;;4.10;3.60;;;7.70;99.90;;;;;;5092868;28;20390;-70
2023/12/25 05:10:13;;;;;;;4.97;4.07;;;7.60;99.90;;;;;;5092320;28;20027;-70
2023/12/25 05:12:39;;;;;;;4.40;3.70;;;7.70;99.90;;;;;;5092319;28;20020;-70
2023/12/25 05:15:05;;;;;;;4.38;3.50;;;7.60;99.90;;;;;;5092359;28;20165;-70
2023/12/25 05:17:31;;;;;;;4.05;3.70;;;7.50;99.90;;;;;;5092132;28;20032;-70
2023/12/25 05:19:57;;;;;;;3.92;3.53;;;7.60;99.90;;;;;;5091821;28;20047;-71
2023/12/25 05:22:22;;;;;;;4.55;4.00;;;7.60;99.90;;;;;;5092663;28;20026;-71
2023/12/25 05:24:48;;;;;;;5.15;3.70;;;7.40;99.90;;;;;;5091986;28;20166;-71
2023/12/25 05:27:13;;;;;;;4.30;3.90;;;7.20;99.90;;;;;;5092286;28;20081;-71
2023/12/25 05:29:39;;;;;;;4.30;3.90;;;7.00;99.90;;;;;;5092438;28;20559;-71
2023/12/25 05:32:05;;;;;;;4.85;4.10;;;7.00;99.90;;;;;;5092062;28;20444;-71
2023/12/25 05:34:31;;;;;;;5.13;4.20;;;6.90;99.90;;;;;;5091763;28;20024;-71
2023/12/25 05:36:56;;;;;;;5.15;4.65;;;6.80;99.90;;;;;;5092224;28;20303;-70
2023/12/25 05:39:24;;;;;;;5.35;4.65;;;6.80;99.90;;;;;;5092041;28;20580;-70
2023/12/25 05:41:50;;;;;;;5.55;4.88;;;6.70;99.90;;;;;;5091970;28;20034;-71
2023/12/25 05:44:16;;;;;;;5.63;5.13;;;6.70;99.90;;;;;;5091590;28;20048;-71
2023/12/25 05:46:42;;;;;;;5.00;4.57;;;6.60;99.90;;;;;;5091817;28;20042;-71
2023/12/25 05:49:07;;;;;;;7.15;5.07;;;6.60;99.90;;;;;;5092085;28;20028;-71
2023/12/25 05:51:33;;;;;;;5.65;4.85;;;6.60;99.90;;;;;;5091523;28;20036;-71
2023/12/25 05:53:59;;;;;;;4.95;4.47;;;6.60;99.90;;;;;;5092171;28;20016;-71
2023/12/25 05:56:25;;;;;;;4.75;4.35;;;6.50;99.90;;;;;;5092031;28;20032;-71
2023/12/25 05:58:50;;;;;;;4.72;4.32;;;6.50;99.90;;;;;;5091751;28;20107;-71
2023/12/25 06:01:16;;;;;;;4.65;4.25;;;6.50;99.90;;;;;;5091554;28;20379;-71
2023/12/25 06:03:42;;;;;;;5.32;4.57;;;6.50;99.90;;;;;;5091544;28;20031;-71
2023/12/25 06:06:08;;;;;;;6.55;5.05;;;6.50;99.90;;;;;;5091697;28;20526;-71
2023/12/25 06:08:34;;;;;;;6.75;5.40;;;6.50;99.90;;;;;;5091910;28;20521;-71
2023/12/25 06:11:00;;;;;;;7.55;5.90;;;6.50;99.90;;;;;;5091761;28;20364;-71
2023/12/25 06:13:26;;;;;;;6.13;5.53;;;6.60;99.90;;;;;;5095905;28;20031;-71
2023/12/25 06:15:52;;;;;;;8.65;6.03;;;6.60;99.90;;;;;;5095740;28;20020;-71
2023/12/25 06:18:18;;;;;;;10.52;5.88;;;6.50;99.90;;;;;;5095297;28;20052;-70
2023/12/25 06:20:44;;;;;;;8.95;5.70;;;6.50;99.90;;;;;;5095569;28;20505;-71
2023/12/25 06:23:10;;;;;;;6.40;5.72;;;6.50;99.90;;;;;;5095463;28;20020;-71
2023/12/25 06:25:36;;;;;;;6.53;5.50;;;6.40;99.90;;;;;;5095312;28;20034;-71
2023/12/25 06:28:02;;;;;;;5.95;5.45;;;6.50;99.90;;;;;;5095686;28;20394;-71
2023/12/25 06:30:28;;;;;;;10.55;5.53;;;6.40;99.90;;;;;;5095311;28;20023;-71
2023/12/25 06:32:54;;;;;;;5.63;5.22;;;6.40;99.90;;;;;;5094908;28;20028;-70
2023/12/25 06:35:20;;;;;;;9.02;5.80;;;6.40;99.90;;;;;;5095150;28;20035;-70
2023/12/25 06:37:45;;;;;;;5.85;5.32;;;6.30;99.90;;;;;;5095147;28;20043;-71
2023/12/25 06:40:11;;;;;;;7.45;5.22;;;6.20;99.90;;;;;;5094759;28;20561;-70
2023/12/25 06:42:37;;;;;;;6.88;5.40;;;6.30;99.90;;;;;;5095056;28;20027;-71
2023/12/25 06:45:05;;;;;;;5.18;4.78;;;6.30;99.90;;;;;;5095150;28;20559;-70
2023/12/25 06:47:31;;;;;;;5.45;4.95;;;6.40;99.90;;;;;;5094520;28;20032;-70
2023/12/25 06:49:56;;;;;;;5.32;4.82;;;6.20;99.90;;;;;;5094927;28;20103;-70
2023/12/25 06:52:22;;;;;;;5.45;4.78;;;6.10;99.90;;;;;;5095183;28;20106;-70
2023/12/25 06:54:48;;;;;;;5.10;4.65;;;6.30;99.90;;;;;;5094639;28;20442;-70
2023/12/25 06:57:14;;;;;;;4.60;4.28;;;6.50;99.90;;;;;;5094971;28;20076;-70
2023/12/25 06:59:44;;;;;;;4.70;4.30;;;6.50;99.90;;;;;;5094491;28;20044;-70
2023/12/25 07:02:10;;;;;;;4.60;4.20;;;6.70;99.90;;;;;;5094668;28;20020;-70
2023/12/25 07:04:36;;;;;;;4.63;4.22;;;6.70;99.90;;;;;;5094788;28;20036;-70
2023/12/25 07:07:03;;;;;;;4.40;4.00;;;6.90;99.90;;;;;;5094694;28;20072;-70
2023/12/25 07:09:29;;;;;;;4.40;4.00;;;7.00;99.90;;;;;;5094640;28;20097;-70
2023/12/25 07:11:55;;;;;;;4.10;3.70;;;6.90;99.90;;;;;;5094638;28;20569;-70
2023/12/25 07:14:21;;;;;;;3.80;3.50;;;6.90;99.90;;;;;;5094344;28;20115;-70
2023/12/25 07:16:47;;;;;;;4.60;3.40;;;6.90;99.90;;;;;;5094099;28;20016;-69
2023/12/25 07:19:13;;;;;;;3.95;3.65;;;6.70;99.90;;;;;;5094350;28;20036;-69
2023/12/25 07:21:39;;;;;;;4.00;3.70;;;6.60;99.90;;;;;;5094602;28;20024;-70
2023/12/25 07:24:05;;;;;;;4.13;3.72;;;6.50;99.90;;;;;;5094127;28;20028;-70
2023/12/25 07:26:31;;;;;;;4.88;3.50;;;6.40;99.90;;;;;;5094130;28;20482;-70
2023/12/25 07:28:58;;;;;;;4.40;4.00;;;6.30;99.90;;;;;;5092953;28;20024;-69
2023/12/25 07:31:23;;;;;;;5.13;4.43;;;6.20;99.90;;;;;;5094134;28;20063;-70
2023/12/25 07:33:51;;;;;;;6.05;4.75;;;6.10;99.90;;;;;;5094149;28;20047;-70
2023/12/25 07:36:17;;;;;;;5.53;4.00;;;6.10;99.90;;;;;;5094082;28;20024;-70
2023/12/25 07:38:42;;;;;;;7.05;4.30;;;6.10;99.90;;;;;;5093775;28;20032;-69
2023/12/25 07:41:09;;;;;;;4.82;4.38;;;5.90;99.90;;;;;;5093868;28;20032;-70
2023/12/25 07:43:35;;;;;;;4.68;4.28;;;6.00;99.90;;;;;;5093768;28;20099;-70
2023/12/25 07:46:04;;;;;;;8.23;4.70;;;6.00;99.90;;;;;;5093233;28;20058;-70
2023/12/25 07:48:30;;;;;;;5.57;4.45;;;5.90;99.90;;;;;;5094079;28;20103;-69
2023/12/25 07:50:55;;;;;;;4.78;4.38;;;5.90;99.90;;;;;;5093660;28;20104;-69
2023/12/25 07:53:21;;;;;;;5.03;4.63;;;5.90;99.90;;;;;;5093707;28;20056;-70
2023/12/25 07:55:47;;;;;;;5.40;4.90;;;5.90;99.90;;;;;;5093818;28;20486;-69
2023/12/25 07:58:14;;;;;;;5.60;5.00;;;6.00;99.90;;;;;;5093699;28;20486;-69
2023/12/25 08:00:43;;;;;;;4.70;4.30;;;5.90;99.90;;;;;;5093274;28;20031;-70
2023/12/25 08:03:10;;;;;;;4.90;4.50;;;5.90;99.90;;;;;;5093609;28;20024;-69
2023/12/25 08:05:36;;;;;;;5.10;4.60;;;5.90;99.90;;;;;;5093498;28;20036;-70
2023/12/25 08:08:02;;;;;;;5.32;4.85;;;5.90;99.90;;;;;;5093540;28;20381;-70
2023/12/25 08:10:28;;;;;;;5.10;4.70;;;5.80;99.90;;;;;;5093364;28;20028;-70
2023/12/25 08:12:54;;;;;;;5.80;5.30;;;5.90;99.90;;;;;;5092963;28;20028;-69
2023/12/25 08:15:20;;;;;;;5.85;5.35;;;5.90;99.90;;;;;;5093261;28;20055;-70
2023/12/25 08:17:46;;;;;;;5.65;5.05;;;5.90;99.90;;;;;;5093731;28;20055;-70
2023/12/25 08:20:12;;;;;;;6.13;5.05;;;5.90;99.90;;;;;;5093123;28;20036;-69
2023/12/25 08:22:37;;;;;;;5.90;4.90;;;5.90;99.90;;;;;;5091892;28;20020;-70
2023/12/25 08:25:03;;;;;;;4.90;4.47;;;5.90;99.90;;;;;;5093036;28;20036;-69
2023/12/25 08:27:29;;;;;;;5.97;5.13;;;6.00;99.90;;;;;;5092749;28;20028;-69
2023/12/25 08:29:55;;;;;;;5.25;4.80;;;6.00;99.90;;;;;;5093157;28;20428;-69
2023/12/25 08:32:21;;;;;;;5.90;5.40;;;6.00;99.90;;;;;;5093003;28;20109;-70
2023/12/25 08:34:47;;;;;;;6.05;5.55;;;6.00;99.90;;;;;;5092853;28;20065;-70
2023/12/25 08:37:12;;;;;;;6.10;5.50;;;6.10;99.90;;;;;;5092905;28;20016;-70
2023/12/25 08:39:38;;;;;;;6.65;5.70;;;6.10;99.90;;;;;;5091596;28;20501;-70
2023/12/25 08:42:04;;;;;;;6.85;6.15;;;6.20;99.90;;;;;;5092552;28;20106;-70
2023/12/25 08:44:35;;;;;;;6.22;5.72;;;6.30;99.90;;;;;;5093044;28;20130;-69
2023/12/25 08:47:00;;;;;;;6.57;5.88;;;6.30;99.90;;;;;;5092625;28;20074;-67
2023/12/25 08:49:26;;;;;;;6.78;6.18;;;6.40;99.90;;;;;;5092889;28;20028;-67
2023/12/25 08:51:52;;;;;;;7.00;6.30;;;6.40;99.90;;;;;;5092755;28;20482;-66
2023/12/25 08:54:17;;;;;;;9.05;6.88;;;6.50;99.90;;;;;;5092382;28;20028;-66
2023/12/25 08:56:43;;;;;;;8.43;7.60;;;6.50;99.90;;;;;;5092342;28;20036;-69
2023/12/25 08:59:09;;;;;;;8.27;7.45;;;6.60;99.90;;;;;;5092653;28;20020;-65
2023/12/25 09:01:35;;;;;;;8.60;7.72;;;6.90;99.90;;;;;;5092497;28;20024;-66
2023/12/25 09:04:01;;;;;;;8.32;7.18;;;7.20;99.90;;;;;;5091336;28;20047;-66
2023/12/25 09:06:27;;;;;;;9.25;7.70;;;7.40;99.90;;;;;;5091843;28;20062;-66
2023/12/25 09:08:53;;;;;;;7.70;7.00;;;7.50;99.90;;;;;;5092324;28;20051;-65
2023/12/25 09:11:18;;;;;;;7.00;6.18;;;7.60;99.90;;;;;;5091637;28;20020;-66
2023/12/25 09:13:45;;;;;;;10.52;6.80;;;7.60;99.90;;;;;;5092110;28;20100;-66
2023/12/25 09:16:11;;;;;;;7.40;6.70;;;7.70;99.90;;;;;;5092336;28;20036;-66
2023/12/25 09:18:36;;;;;;;7.90;6.80;;;7.80;99.90;;;;;;5092176;28;20028;-67
2023/12/25 09:21:02;;;;;;;7.22;6.53;;;7.90;99.90;;;;;;5092328;28;20402;-66
2023/12/25 09:23:29;;;;;;;9.75;7.38;;;7.90;99.90;;;;;;5092003;28;20020;-66
2023/12/25 09:25:55;;;;;;;7.78;6.97;;;7.90;99.90;;;;;;5091617;28;20588;-66
2023/12/25 09:28:21;;;;;;;7.75;6.95;;;7.90;99.90;;;;;;5092095;28;20119;-67
2023/12/25 09:30:46;;;;;;;8.15;7.35;;;7.80;99.90;;;;;;5091872;28;20028;-67
2023/12/25 09:33:12;;;;;;;8.30;7.50;;;7.60;99.90;;;;;;5092409;28;20023;-66
2023/12/25 09:35:38;;;;;;;9.65;8.10;;;7.50;99.90;;;;;;5092038;28;20035;-66
2023/12/25 09:38:04;;;;;;;12.23;7.88;;;8.40;99.90;;;;;;5092195;28;20031;-67
2023/12/25 09:40:31;;;;;;;8.75;7.88;;;7.50;99.90;;;;;;5091252;28;20101;-67
2023/12/25 09:42:58;;;;;;;10.75;8.90;;;7.50;99.90;;;;;;5092146;28;20101;-68
2023/12/25 09:45:26;;;;;;;10.13;9.07;;;7.50;99.90;;;;;;5091965;28;20048;-66
2023/12/25 09:47:52;;;;;;;10.18;8.85;;;;;;;;;;5095110;28;20024;-66
2023/12/25 09:50:21;;;;;;;10.52;9.35;;;7.60;99.90;;;;;;5095923;28;20032;-67
2023/12/25 09:52:47;;;;;;;11.13;8.32;;;7.60;99.90;;;;;;5095794;28;20052;-65
2023/12/25 09:55:13;;;;;;;8.85;7.70;;;7.60;99.90;;;;;;5095677;28;20063;-66
2023/12/25 09:57:40;;;;;;;10.75;7.72;;;7.60;99.90;;;;;;5095279;28;20031;-66
2023/12/25 10:00:08;;;;;;;7.93;7.00;;;7.60;99.90;;;;;;5095124;28;20036;-67
2023/12/25 10:02:38;;;;;;;10.55;7.38;;;7.60;99.90;;;;;;5095209;28;20020;-67
2023/12/25 10:05:06;;;;;;;9.80;7.53;;;7.60;99.90;;;;;;5095536;28;20073;-67
2023/12/25 10:07:32;;;;;;;9.27;7.60;;;7.80;99.90;;;;;;5095055;28;20042;-67
2023/12/25 10:09:58;;;;;;;10.75;8.07;;;7.90;99.90;;;;;;5094872;28;20020;-65
2023/12/25 10:12:24;;;;;;;11.23;7.78;;;8.00;99.90;;;;;;5095590;28;20028;-66
2023/12/25 10:14:50;;;;;;;8.13;6.97;;;8.00;99.90;;;;;;5095322;28;20074;-64
2023/12/25 10:17:16;;;;;;;8.57;7.53;;;8.00;99.90;;;;;;5095803;28;20020;-69
2023/12/25 10:19:54;;;;;;;7.85;6.60;;;8.00;99.90;;;;;;5095554;28;20496;-69
2023/12/25 10:22:40;;;;;;;10.77;7.55;;;8.50;99.90;;;;;;5095252;28;20036;-69
2023/12/25 10:25:16;;;;;;;9.07;6.97;;;8.60;99.90;;;;;;5094675;28;20515;-66
2023/12/25 10:27:43;;;;;;;8.32;7.28;;;8.50;99.90;;;;;;5095183;28;20077;-66
2023/12/25 10:30:18;;;;;;;9.13;7.45;;;8.50;99.90;;;;;;5094871;28;20012;-66
2023/12/25 10:32:44;;;;;;;9.85;8.13;;;8.40;99.90;;;;;;5095323;28;20020;-66
2023/12/25 10:35:11;;;;;;;8.82;7.40;;;8.30;99.90;;;;;;5094967;28;20031;-66
2023/12/25 10:37:38;;;;;;;9.48;7.20;;;8.40;99.90;;;;;;5094475;28;20028;-65
2023/12/25 10:40:25;;;;;;;9.45;7.00;;;8.40;99.90;;;;;;5094292;28;20063;-66
2023/12/25 10:42:54;;;;;;;9.25;7.30;;;8.40;99.90;;;;;;5094206;28;20374;-66
2023/12/25 10:45:22;;;;;;;9.73;8.07;;;8.40;99.90;;;;;;5094288;28;20565;-66
2023/12/25 10:47:56;;;;;;;9.85;8.20;;;8.40;99.90;;;;;;5094251;28;20024;-67
2023/12/25 10:50:26;;;;;;;10.88;8.32;;;8.50;99.90;;;;;;5093044;28;20398;-66
2023/12/25 10:53:15;;;;;;;8.98;7.47;;;8.60;99.90;;;;;;5093562;28;20034;-66
2023/12/25 10:55:43;;;;;;;11.95;8.30;;;8.70;99.90;;;;;;5093929;28;20017;-66
2023/12/25 10:58:11;;;;;;;13.95;8.20;;;8.60;99.90;;;;;;5091924;28;20429;-66
2023/12/25 11:00:42;;;;;;;12.32;7.68;;;8.60;99.90;;;;;;5094009;28;20032;-66
2023/12/25 11:03:11;;;;;;;9.15;6.82;;;8.60;99.90;;;;;;5092648;28;20024;-66
2023/12/25 11:05:39;;;;;;;9.23;6.95;;;8.80;99.90;;;;;;5093777;28;20114;-65
2023/12/25 11:08:05;;;;;;;9.27;6.60;;;9.00;99.90;;;;;;5093476;28;20383;-66
2023/12/25 11:10:31;;;;;;;9.23;6.60;;;9.10;99.90;;;;;;5093872;28;20012;-66
2023/12/25 11:12:58;;;;;;;7.80;6.45;;;9.20;99.90;;;;;;5093364;28;20036;-66
2023/12/25 11:15:24;;;;;;;8.82;6.80;;;9.40;99.90;;;;;;5093847;28;20054;-66
2023/12/25 11:17:50;;;;;;;9.88;6.78;;;9.50;99.90;;;;;;5093634;28;20036;-66
2023/12/25 11:20:16;;;;;;;8.48;6.18;;;9.60;99.90;;;;;;5093135;28;20048;-66
2023/12/25 11:22:46;;;;;;;7.15;6.20;;;9.80;99.90;;;;;;5093207;28;20024;-65
2023/12/25 11:25:17;;;;;;;8.18;6.45;;;9.80;99.90;;;;;;5093461;28;20024;-66
2023/12/25 11:27:53;;;;;;;10.15;7.15;;;9.90;99.90;;;;;;5093497;28;20016;-67
2023/12/25 11:30:22;;;;;;;9.07;7.63;;;9.90;99.90;;;;;;5093617;28;20028;-67
2023/12/25 11:32:49;;;;;;;10.82;7.15;;;9.80;99.90;;;;;;5093373;28;20069;-66
2023/12/25 11:35:28;;;;;;;9.82;7.05;;;9.80;99.90;;;;;;5093319;28;20032;-67
2023/12/25 11:38:25;;;;;;;9.55;7.90;;;9.80;99.90;;;;;;5092841;28;20564;-66
2023/12/25 11:40:51;;;;;;;9.52;7.30;;;9.70;99.90;;;;;;5091496;28;20047;-67
2023/12/25 11:43:21;;;;;;;9.25;7.75;;;9.60;99.90;;;;;;5093032;28;20390;-67
2023/12/25 11:45:52;;;;;;;8.82;7.47;;;9.80;99.90;;;;;;5092913;28;20044;-66
2023/12/25 11:48:17;;;;;;;9.48;7.85;;;9.80;99.90;;;;;;5092870;28;20028;-67
2023/12/25 11:50:45;;;;;;;8.52;7.63;;;9.90;99.90;;;;;;5092490;28;20081;-66
2023/12/25 11:53:30;;;;;;;9.02;7.80;;;9.90;99.90;;;;;;5093206;28;20090;-66
2023/12/25 11:55:56;;;;;;;8.82;7.35;;;9.90;99.90;;;;;;5092587;28;20024;-67
2023/12/25 11:58:22;;;;;;;9.77;8.50;;;10.00;99.90;;;;;;5093010;28;20028;-67
2023/12/25 12:00:48;;;;;;;9.85;8.65;;;10.00;99.90;;;;;;5092704;28;20032;-66
2023/12/25 12:03:14;;;;;;;10.55;8.77;;;10.00;99.90;;;;;;5092522;28;20024;-66
2023/12/25 12:05:43;;;;;;;9.90;8.75;;;10.00;99.90;;;;;;5092056;28;20394;-66
2023/12/25 12:08:09;;;;;;;9.35;8.35;;;10.10;99.90;;;;;;5092290;28;20399;-66
2023/12/25 12:10:35;;;;;;;9.32;8.43;;;10.10;99.90;;;;;;5091914;28;20032;-66
2023/12/25 12:13:01;;;;;;;9.35;7.82;;;10.20;99.90;;;;;;5092475;28;20024;-68
2023/12/25 12:15:27;;;;;;;8.13;7.32;;;10.20;99.90;;;;;;5092253;28;20031;-68
2023/12/25 12:17:52;;;;;;;8.68;7.82;;;10.40;99.90;;;;;;5092261;28;20029;-68
2023/12/25 12:20:19;;;;;;;10.32;8.80;;;10.40;99.90;;;;;;5091801;28;20097;-67
2023/12/25 12:22:44;;;;;;;10.82;8.60;;;10.50;99.90;;;;;;5092148;28;20398;-66
2023/12/25 12:25:19;;;;;;;9.68;8.77;;;10.50;99.90;;;;;;5092269;28;20032;-66
2023/12/25 12:27:45;;;;;;;12.40;9.43;;;10.50;99.90;;;;;;5092192;28;20518;-66
2023/12/25 12:30:11;;;;;;;10.93;9.82;;;10.60;99.90;;;;;;5092604;28;20107;-64
2023/12/25 12:32:37;;;;;;;10.45;9.40;;;10.60;99.90;;;;;;5091883;28;20712;-66
2023/12/25 12:35:09;;;;;;;10.35;9.40;;;10.60;99.90;;;;;;5091743;28;20052;-67
2023/12/25 12:37:35;;;;;;;10.60;9.48;;;10.70;99.90;;;;;;5091842;28;20103;-67
2023/12/25 12:40:05;;;;;;;11.25;9.75;;;10.70;99.90;;;;;;5091651;28;20094;-67
2023/12/25 12:42:32;;;;;;;10.10;9.10;;;10.70;99.90;;;;;;5091931;28;20017;-67
2023/12/25 12:44:59;;;;;;;10.77;8.88;;;10.80;99.90;;;;;;5091536;28;20414;-68
2023/12/25 12:47:25;;;;;;;11.68;9.60;;;10.80;99.90;;;;;;5091606;28;20032;-67
2023/12/25 12:49:50;;;;;;;12.75;10.20;;;11.00;99.90;;;;;;5091556;28;20024;-67
2023/12/25 12:52:16;;;;;;;23.23;17.63;;;11.50;99.90;;;;;;5091602;28;20521;-67